Time;durP1;ratioP1;P1;durP2;ratioP2;P2;SDS_P1;SDS_P2;PMS_P1;PMS_P2;Temp;Humidity;BMP_temperature;BMP_pressure;BME280_temperature;BME280_humidity;BME280_pressure;Samples;Min_cycle;Max_cycle;Signal;HPM_P1;HPM_P2
2023/12/06 00:01:51;;;;;;;1.00;0.77;;;3.10;99.90;;;;;;5035009;28;20232;-71
2023/12/06 00:04:18;;;;;;;1.30;1.20;;;3.00;99.90;;;;;;5026484;28;20663;-71
2023/12/06 00:06:44;;;;;;;0.95;0.88;;;3.10;99.90;;;;;;5029789;28;20213;-71
2023/12/06 00:09:13;;;;;;;0.70;0.70;;;3.00;99.90;;;;;;5030597;28;20214;-72
2023/12/06 00:11:39;;;;;;;1.10;0.85;;;3.00;99.90;;;;;;5033087;28;20703;-70
2023/12/06 00:14:06;;;;;;;1.00;0.80;;;3.10;99.90;;;;;;5033262;28;20593;-71
2023/12/06 04:35:50;;;;;;;3.40;0.73;;;3.00;99.90;;;;;;5009652;28;20213;-71
2023/12/06 04:38:16;;;;;;;0.70;0.70;;;3.00;99.90;;;;;;5009408;28;20230;-72
2023/12/06 04:40:43;;;;;;;1.30;0.80;;;3.00;99.90;;;;;;5005345;28;20243;-71
2023/12/06 04:43:10;;;;;;;0.88;0.80;;;3.00;99.90;;;;;;4997137;28;20199;-72
2023/12/06 04:45:36;;;;;;;0.82;0.70;;;3.00;99.90;;;;;;4994230;28;20258;-72
2023/12/06 04:48:04;;;;;;;0.70;0.60;;;3.00;99.90;;;;;;4999195;28;20203;-72
2023/12/06 04:50:30;;;;;;;0.75;0.70;;;3.00;99.90;;;;;;4999003;28;20668;-72
2023/12/06 04:52:58;;;;;;;2.08;0.88;;;3.00;99.90;;;;;;4994913;28;20219;-71
2023/12/06 04:55:25;;;;;;;2.95;0.80;;;3.00;99.90;;;;;;4994057;28;20238;-72
2023/12/06 04:57:52;;;;;;;0.90;0.80;;;3.00;99.90;;;;;;4993887;28;20283;-72
2023/12/06 05:00:21;;;;;;;0.70;0.70;;;3.00;99.90;;;;;;4993859;28;20211;-72
2023/12/06 05:02:48;;;;;;;0.70;0.70;;;3.00;99.90;;;;;;4991700;28;20203;-72
2023/12/06 05:05:16;;;;;;;0.90;0.70;;;3.00;99.90;;;;;;4991783;28;20207;-71
2023/12/06 05:07:43;;;;;;;1.48;0.70;;;2.90;99.90;;;;;;4993327;28;20703;-72
2023/12/06 05:10:11;;;;;;;0.70;0.60;;;2.90;99.90;;;;;;4997304;28;20619;-71
2023/12/06 05:12:37;;;;;;;1.77;0.70;;;3.00;99.90;;;;;;5000372;28;20229;-71
2023/12/06 05:15:06;;;;;;;0.70;0.70;;;3.00;99.90;;;;;;4998210;28;20215;-71
2023/12/06 05:17:33;;;;;;;0.70;0.70;;;2.90;99.90;;;;;;5003670;28;20227;-72
2023/12/06 05:19:59;;;;;;;0.80;0.70;;;2.90;99.90;;;;;;5000185;28;20703;-71
2023/12/06 05:22:26;;;;;;;1.00;0.80;;;2.90;99.90;;;;;;5000070;28;20453;-72
2023/12/06 05:24:53;;;;;;;0.70;0.60;;;2.90;99.90;;;;;;4993800;28;20204;-70
2023/12/06 05:27:21;;;;;;;0.80;0.75;;;3.00;99.90;;;;;;4992992;28;20207;-72
2023/12/06 05:29:48;;;;;;;0.80;0.70;;;3.00;99.90;;;;;;5001161;28;20304;-73
2023/12/06 05:32:15;;;;;;;0.85;0.70;;;3.00;99.90;;;;;;4993871;28;20239;-73
2023/12/06 05:34:41;;;;;;;0.80;0.68;;;3.00;99.90;;;;;;4996967;28;20207;-72
2023/12/06 05:37:08;;;;;;;1.10;0.70;;;3.00;99.90;;;;;;4992836;28;20209;-73
2023/12/06 05:39:36;;;;;;;0.70;0.70;;;3.10;99.90;;;;;;4993366;28;20215;-73
2023/12/06 05:42:03;;;;;;;0.70;0.70;;;3.10;99.90;;;;;;4993110;28;20727;-73
2023/12/06 05:44:31;;;;;;;0.80;0.70;;;3.00;99.90;;;;;;4996275;28;20561;-72
2023/12/06 05:46:58;;;;;;;0.90;0.70;;;3.00;99.90;;;;;;4997884;28;20622;-73
2023/12/06 05:49:25;;;;;;;0.70;0.60;;;3.00;99.90;;;;;;4995922;28;20229;-72
2023/12/06 05:51:51;;;;;;;0.70;0.60;;;3.00;99.90;;;;;;4992681;28;20697;-72
2023/12/06 05:54:18;;;;;;;0.80;0.70;;;3.00;99.90;;;;;;4991044;28;20203;-73
2023/12/06 05:56:45;;;;;;;0.80;0.75;;;3.00;99.90;;;;;;4992809;28;20242;-73
2023/12/06 05:59:11;;;;;;;0.70;0.60;;;3.00;99.90;;;;;;4992965;28;20963;-73
2023/12/06 06:01:39;;;;;;;0.70;0.70;;;3.00;99.90;;;;;;4993508;28;20229;-71
2023/12/06 06:04:06;;;;;;;1.40;0.80;;;3.00;99.90;;;;;;4994037;28;20292;-73
2023/12/06 06:06:34;;;;;;;0.90;0.70;;;2.90;99.90;;;;;;4993225;28;20233;-73
2023/12/06 06:09:01;;;;;;;1.10;0.73;;;2.90;99.90;;;;;;4992104;28;20205;-72
2023/12/06 06:11:28;;;;;;;0.95;0.85;;;2.90;99.90;;;;;;4993802;28;20227;-71
2023/12/06 06:13:54;;;;;;;1.02;0.75;;;3.00;99.90;;;;;;4993532;28;20208;-71
2023/12/06 06:16:21;;;;;;;0.80;0.70;;;3.00;99.90;;;;;;4993392;28;20235;-74
2023/12/06 06:18:49;;;;;;;0.70;0.70;;;3.00;99.90;;;;;;4991607;28;20204;-73
2023/12/06 06:21:16;;;;;;;1.42;0.85;;;3.00;99.90;;;;;;4992080;28;20263;-73
2023/12/06 06:23:44;;;;;;;0.80;0.70;;;3.00;99.90;;;;;;4991991;28;20212;-73
2023/12/06 06:26:10;;;;;;;0.80;0.70;;;2.90;99.90;;;;;;4991822;28;20231;-74
2023/12/06 06:28:37;;;;;;;1.73;1.08;;;2.90;99.90;;;;;;4991538;28;20687;-74
2023/12/06 06:31:04;;;;;;;0.80;0.70;;;2.90;99.90;;;;;;4991974;28;20249;-74
2023/12/06 06:33:31;;;;;;;1.45;0.70;;;2.90;99.90;;;;;;4991733;28;20257;-74
2023/12/06 06:35:59;;;;;;;1.48;0.70;;;2.90;99.90;;;;;;4992386;28;20660;-73
2023/12/06 06:38:26;;;;;;;1.05;0.90;;;2.90;99.90;;;;;;4998710;28;20886;-73
2023/12/06 06:40:53;;;;;;;0.80;0.80;;;2.90;99.90;;;;;;4991624;28;20330;-73
2023/12/06 06:43:20;;;;;;;1.90;1.20;;;3.00;99.90;;;;;;4992081;28;20207;-73
2023/12/06 06:45:46;;;;;;;0.88;0.80;;;3.00;99.90;;;;;;4991481;28;20587;-73
2023/12/06 06:48:13;;;;;;;1.00;0.82;;;3.00;99.90;;;;;;4991511;28;20207;-73
2023/12/06 06:50:40;;;;;;;0.80;0.70;;;3.00;99.90;;;;;;4991666;28;20226;-73
2023/12/06 06:53:10;;;;;;;1.02;0.90;;;3.00;99.90;;;;;;4999531;28;20259;-73
2023/12/06 06:55:37;;;;;;;0.90;0.75;;;3.00;99.90;;;;;;4991387;28;20222;-73
2023/12/06 06:58:04;;;;;;;1.27;1.17;;;3.00;99.90;;;;;;4991112;28;20203;-72
2023/12/06 07:00:30;;;;;;;0.90;0.70;;;3.00;99.90;;;;;;4991559;28;20284;-72
2023/12/06 07:02:57;;;;;;;1.27;0.93;;;3.10;99.90;;;;;;4991885;28;20667;-72
2023/12/06 07:05:24;;;;;;;1.20;0.90;;;3.10;99.90;;;;;;4998636;28;20202;-72
2023/12/06 07:07:50;;;;;;;0.88;0.80;;;3.10;99.90;;;;;;4990923;28;20203;-72
2023/12/06 07:10:18;;;;;;;1.25;0.95;;;3.10;99.90;;;;;;4989175;28;20206;-72
2023/12/06 07:12:45;;;;;;;0.80;0.70;;;3.10;99.90;;;;;;4995413;28;20624;-72
2023/12/06 07:15:14;;;;;;;0.70;0.60;;;3.10;99.90;;;;;;4991278;28;20222;-72
2023/12/06 07:17:42;;;;;;;0.77;0.70;;;3.10;99.90;;;;;;4990770;28;20213;-72
2023/12/06 07:20:11;;;;;;;1.23;0.80;;;3.10;99.90;;;;;;4994181;28;20210;-72
2023/12/06 07:22:37;;;;;;;0.80;0.80;;;3.20;99.90;;;;;;4995260;28;20223;-72
2023/12/06 07:25:05;;;;;;;1.10;0.98;;;3.20;99.90;;;;;;4994735;28;20589;-72
2023/12/06 07:27:33;;;;;;;1.10;1.00;;;3.20;99.90;;;;;;4995047;28;20628;-74
2023/12/06 07:30:00;;;;;;;0.70;0.70;;;3.20;99.90;;;;;;4993595;28;20208;-73
2023/12/06 07:32:26;;;;;;;0.90;0.80;;;3.20;99.90;;;;;;4994865;28;20229;-73
2023/12/06 07:34:53;;;;;;;1.10;0.70;;;3.20;99.90;;;;;;4994779;28;20681;-73
2023/12/06 07:37:20;;;;;;;1.00;0.90;;;3.20;99.90;;;;;;4994912;28;20593;-73
2023/12/06 07:39:46;;;;;;;0.80;0.73;;;3.30;99.90;;;;;;4994925;28;20231;-73
2023/12/06 07:42:13;;;;;;;0.80;0.70;;;3.30;99.90;;;;;;4995040;28;20229;-73
2023/12/06 07:44:41;;;;;;;0.90;0.80;;;3.30;99.90;;;;;;4994842;28;20217;-73
2023/12/06 07:47:08;;;;;;;1.30;0.93;;;3.30;99.90;;;;;;4994446;28;20205;-73
2023/12/06 07:49:34;;;;;;;1.05;0.80;;;3.30;99.90;;;;;;4995014;28;20267;-73
2023/12/06 07:52:01;;;;;;;0.77;0.70;;;3.30;99.90;;;;;;4994498;28;20459;-73
2023/12/06 07:54:27;;;;;;;0.80;0.80;;;3.30;99.90;;;;;;4994706;28;20695;-74
2023/12/06 07:56:54;;;;;;;1.42;0.90;;;3.30;99.90;;;;;;4994075;28;20218;-72
2023/12/06 07:59:21;;;;;;;0.90;0.80;;;3.40;99.90;;;;;;4994800;28;20206;-74
2023/12/06 08:01:49;;;;;;;1.52;1.00;;;3.40;99.90;;;;;;4994407;28;20609;-72
2023/12/06 08:04:16;;;;;;;1.02;0.70;;;3.40;99.90;;;;;;4994455;28;20734;-74
2023/12/06 08:06:42;;;;;;;0.70;0.60;;;3.40;99.90;;;;;;4995091;28;20236;-74
2023/12/06 08:09:12;;;;;;;1.10;0.93;;;3.40;99.90;;;;;;4993920;28;20210;-72
2023/12/06 08:11:39;;;;;;;1.00;0.80;;;3.50;99.90;;;;;;4994297;28;20317;-74
2023/12/06 08:14:06;;;;;;;1.27;1.00;;;3.50;99.90;;;;;;4994261;28;20697;-72
2023/12/06 08:16:32;;;;;;;1.23;1.13;;;3.60;99.90;;;;;;4994384;28;20201;-72
2023/12/06 08:19:00;;;;;;;0.80;0.80;;;3.70;99.90;;;;;;4994586;28;20205;-72
2023/12/06 08:21:27;;;;;;;1.15;1.05;;;3.70;99.90;;;;;;4994491;28;20239;-73
2023/12/06 08:23:54;;;;;;;1.25;1.15;;;3.70;99.90;;;;;;4993929;28;20207;-72
2023/12/06 08:26:21;;;;;;;1.35;1.13;;;3.70;99.90;;;;;;4994216;28;20312;-72
2023/12/06 08:28:48;;;;;;;2.70;1.80;;;3.80;99.90;;;;;;4993667;28;20223;-74
2023/12/06 08:31:14;;;;;;;3.42;1.83;;;3.90;99.90;;;;;;4993454;28;20298;-72
2023/12/06 08:33:41;;;;;;;2.28;1.50;;;3.90;99.90;;;;;;4993735;28;20704;-74
2023/12/06 08:36:10;;;;;;;2.75;2.15;;;3.90;99.90;;;;;;4993796;28;20203;-73
2023/12/06 08:38:36;;;;;;;2.47;2.25;;;3.90;99.90;;;;;;4993822;28;20215;-72
2023/12/06 08:41:05;;;;;;;2.95;1.63;;;3.90;99.90;;;;;;4993864;28;20607;-71
2023/12/06 08:43:34;;;;;;;2.03;1.70;;;4.00;99.90;;;;;;4994143;28;20200;-73
2023/12/06 08:46:01;;;;;;;4.07;2.60;;;3.90;99.90;;;;;;4993783;28;20216;-74
2023/12/06 08:48:28;;;;;;;2.83;2.47;;;3.90;99.90;;;;;;4993788;28;20199;-72
2023/12/06 08:50:54;;;;;;;3.42;2.00;;;3.90;99.90;;;;;;4993404;28;20232;-72
2023/12/06 08:53:22;;;;;;;2.53;2.13;;;3.90;99.90;;;;;;4993889;28;20257;-73
2023/12/06 08:55:49;;;;;;;3.00;2.13;;;3.90;99.90;;;;;;4993545;28;20214;-73
2023/12/06 08:58:16;;;;;;;2.83;2.10;;;3.90;99.90;;;;;;4993557;28;20209;-74
2023/12/06 09:00:42;;;;;;;3.70;2.40;;;3.90;99.90;;;;;;4995691;28;20235;-74
2023/12/06 09:03:09;;;;;;;3.50;3.03;;;3.90;99.90;;;;;;4994084;28;20578;-73
2023/12/06 09:05:36;;;;;;;4.22;3.28;;;3.90;99.90;;;;;;4995252;28;20209;-76
2023/12/06 09:08:02;;;;;;;4.57;3.00;;;3.90;99.90;;;;;;4992744;28;20203;-72
2023/12/06 09:10:31;;;;;;;2.85;2.28;;;3.90;99.90;;;;;;4993397;28;20220;-72
2023/12/06 09:12:57;;;;;;;3.80;2.70;;;4.00;99.90;;;;;;4993015;28;20225;-73
2023/12/06 09:15:24;;;;;;;3.30;3.00;;;4.00;99.90;;;;;;4993201;28;20682;-72
2023/12/06 09:17:51;;;;;;;5.15;3.70;;;4.00;99.90;;;;;;4992801;28;20209;-72
2023/12/06 09:20:18;;;;;;;2.58;2.15;;;3.90;99.90;;;;;;4986922;28;20201;-72
2023/12/06 09:22:44;;;;;;;3.40;2.67;;;3.90;99.90;;;;;;4993028;28;20234;-72
2023/12/06 09:25:11;;;;;;;3.22;2.78;;;3.90;99.90;;;;;;4992812;28;20209;-72
2023/12/06 09:27:39;;;;;;;4.35;3.50;;;3.90;99.90;;;;;;4992704;28;20216;-72
2023/12/06 09:30:08;;;;;;;3.00;2.80;;;3.90;99.90;;;;;;4994316;28;20232;-72
2023/12/06 09:32:35;;;;;;;4.95;3.15;;;3.90;99.90;;;;;;4993087;28;20240;-73
2023/12/06 09:35:02;;;;;;;2.95;2.65;;;3.90;99.90;;;;;;4994098;28;20219;-73
2023/12/06 09:37:29;;;;;;;4.45;3.25;;;3.90;99.90;;;;;;4997276;28;20209;-73
2023/12/06 09:39:56;;;;;;;2.90;2.42;;;3.80;99.90;;;;;;4992410;28;20696;-73
2023/12/06 09:42:26;;;;;;;3.70;2.50;;;3.80;99.90;;;;;;4994554;28;20648;-73
2023/12/06 09:44:56;;;;;;;3.28;2.63;;;3.80;99.90;;;;;;4993457;28;20224;-76
2023/12/06 09:47:24;;;;;;;4.45;3.17;;;3.90;99.90;;;;;;4993223;28;20665;-73
2023/12/06 09:49:51;;;;;;;6.38;3.85;;;3.80;99.90;;;;;;4992371;28;20209;-72
2023/12/06 09:52:21;;;;;;;3.20;2.95;;;3.80;99.90;;;;;;4986020;28;20227;-73
2023/12/06 09:54:49;;;;;;;3.63;3.33;;;3.90;99.90;;;;;;4992339;28;20234;-72
2023/12/06 09:57:17;;;;;;;3.30;3.00;;;3.90;99.90;;;;;;4992145;28;20203;-73
2023/12/06 09:59:43;;;;;;;3.70;3.20;;;3.80;99.90;;;;;;4992355;28;20592;-72
2023/12/06 10:02:11;;;;;;;3.35;3.05;;;3.80;99.90;;;;;;4992432;28;20224;-73
2023/12/06 10:04:38;;;;;;;4.07;3.42;;;3.80;99.90;;;;;;4992424;28;20209;-72
2023/12/06 10:07:05;;;;;;;3.42;3.13;;;3.80;99.90;;;;;;4991615;28;20633;-72
2023/12/06 10:09:32;;;;;;;3.88;3.42;;;3.80;99.90;;;;;;4992304;28;20204;-73
2023/12/06 10:12:07;;;;;;;5.47;3.70;;;3.80;99.90;;;;;;4992053;28;20240;-73
2023/12/06 10:14:34;;;;;;;3.95;3.10;;;3.70;99.90;;;;;;4992415;28;20221;-73
2023/12/06 10:17:02;;;;;;;6.20;3.70;;;3.70;99.90;;;;;;4991431;28;20208;-72
2023/12/06 10:19:31;;;;;;;3.35;2.97;;;3.60;99.90;;;;;;4992223;28;20199;-73
2023/12/06 10:22:00;;;;;;;3.72;3.42;;;3.60;99.90;;;;;;4991996;28;20313;-73
2023/12/06 10:24:28;;;;;;;3.25;2.95;;;3.60;99.90;;;;;;4992206;28;20208;-73
2023/12/06 10:27:02;;;;;;;5.13;3.47;;;3.60;99.90;;;;;;4999594;28;20205;-72
2023/12/06 10:29:30;;;;;;;5.55;4.25;;;3.60;99.90;;;;;;4992259;28;20202;-73
2023/12/06 10:31:57;;;;;;;4.20;3.55;;;3.60;99.90;;;;;;4992178;28;20235;-72
2023/12/06 10:34:25;;;;;;;5.13;3.83;;;3.60;99.90;;;;;;4991832;28;20224;-72
2023/12/06 10:36:55;;;;;;;4.65;3.65;;;3.60;99.90;;;;;;4991444;28;20206;-73
2023/12/06 10:39:23;;;;;;;4.90;3.20;;;3.70;99.90;;;;;;4985448;28;20236;-73
2023/12/06 10:41:52;;;;;;;4.18;2.78;;;3.80;99.90;;;;;;4991536;28;20286;-72
2023/12/06 10:44:19;;;;;;;3.58;3.28;;;3.80;99.90;;;;;;4996488;28;20200;-73
2023/12/06 10:46:47;;;;;;;5.75;3.50;;;3.80;99.90;;;;;;4991340;28;20215;-73
2023/12/06 10:49:15;;;;;;;3.28;2.97;;;3.90;99.90;;;;;;4997401;28;20209;-72
2023/12/06 10:51:43;;;;;;;4.63;3.55;;;3.90;99.90;;;;;;4991628;28;20236;-73
2023/12/06 10:54:13;;;;;;;3.72;3.42;;;4.00;99.90;;;;;;4991068;28;20244;-73
2023/12/06 10:56:39;;;;;;;3.60;3.15;;;4.00;99.90;;;;;;4991543;28;20204;-73
2023/12/06 10:59:10;;;;;;;3.60;3.30;;;4.00;99.90;;;;;;4990903;28;20261;-72
2023/12/06 11:01:37;;;;;;;4.50;4.05;;;4.00;99.90;;;;;;4991582;28;20275;-73
2023/12/06 11:04:04;;;;;;;3.33;2.90;;;4.00;99.90;;;;;;4990974;28;20684;-73
2023/12/06 11:06:39;;;;;;;3.95;2.78;;;4.10;99.90;;;;;;4991333;28;20227;-72
2023/12/06 11:09:19;;;;;;;4.32;3.17;;;4.00;99.90;;;;;;4990771;28;20608;-72
2023/12/06 11:11:57;;;;;;;4.40;3.40;;;4.00;99.90;;;;;;4991304;28;20238;-71
2023/12/06 11:14:43;;;;;;;4.07;3.30;;;4.00;99.90;;;;;;4985161;28;20224;-73
2023/12/06 11:17:23;;;;;;;4.30;3.40;;;4.00;99.90;;;;;;4990520;28;20213;-72
2023/12/06 11:19:50;;;;;;;4.45;3.42;;;3.90;99.90;;;;;;4991350;28;20236;-73
2023/12/06 11:22:18;;;;;;;3.40;2.85;;;3.90;99.90;;;;;;4991408;28;20235;-73
2023/12/06 11:24:46;;;;;;;4.15;3.13;;;3.90;99.90;;;;;;4991361;28;20580;-72
2023/12/06 11:27:13;;;;;;;4.70;3.13;;;4.00;99.90;;;;;;4990967;28;20219;-72
2023/12/06 11:29:40;;;;;;;4.00;2.83;;;4.00;99.90;;;;;;4999400;28;20674;-73
2023/12/06 11:32:12;;;;;;;4.45;3.17;;;3.90;99.90;;;;;;4990683;28;20766;-73
2023/12/06 11:34:40;;;;;;;2.90;2.70;;;3.90;99.90;;;;;;4991188;28;20244;-73
2023/12/06 11:37:15;;;;;;;3.53;3.20;;;3.90;99.90;;;;;;4990292;28;20211;-73
2023/12/06 11:39:42;;;;;;;3.20;2.60;;;3.90;99.90;;;;;;4991295;28;20219;-73
2023/12/06 11:42:17;;;;;;;2.90;2.65;;;3.90;99.90;;;;;;4990830;28;20225;-73
2023/12/06 11:44:52;;;;;;;3.22;2.13;;;4.00;99.90;;;;;;4991260;28;20292;-72
2023/12/06 11:47:24;;;;;;;3.25;2.95;;;4.00;99.90;;;;;;4985886;28;20685;-73
2023/12/06 11:49:52;;;;;;;3.63;3.20;;;4.00;99.90;;;;;;4990820;28;20212;-73
2023/12/06 11:52:20;;;;;;;4.05;2.90;;;4.00;99.90;;;;;;4984303;28;20260;-72
2023/12/06 11:54:47;;;;;;;4.53;3.30;;;3.90;99.90;;;;;;4991258;28;20227;-73
2023/12/06 11:57:15;;;;;;;4.97;3.40;;;3.90;99.90;;;;;;4990496;28;20214;-73
2023/12/06 11:59:43;;;;;;;5.35;2.95;;;3.90;99.90;;;;;;4991108;28;20687;-73
2023/12/06 12:02:11;;;;;;;3.80;3.28;;;3.80;99.90;;;;;;4991079;28;20279;-73
2023/12/06 12:04:38;;;;;;;4.75;3.00;;;3.80;99.90;;;;;;4992325;28;20207;-73
2023/12/06 12:07:05;;;;;;;3.80;2.90;;;3.80;99.90;;;;;;4993949;28;20211;-72
2023/12/06 12:09:32;;;;;;;3.90;3.03;;;3.80;99.90;;;;;;4994800;28;20211;-73
2023/12/06 12:11:59;;;;;;;5.85;3.47;;;3.80;99.90;;;;;;5002368;28;20320;-72
2023/12/06 12:14:33;;;;;;;8.68;3.10;;;3.80;99.90;;;;;;4994545;28;20223;-73
2023/12/06 12:17:01;;;;;;;4.18;2.90;;;3.80;99.90;;;;;;4994122;28;20581;-73
2023/12/06 12:19:28;;;;;;;3.22;2.78;;;3.80;99.90;;;;;;4994824;28;20664;-73
2023/12/06 12:22:02;;;;;;;3.53;2.70;;;3.80;99.90;;;;;;4994241;28;20223;-73
2023/12/06 12:24:29;;;;;;;2.63;2.42;;;3.80;99.90;;;;;;4994566;28;20204;-73
2023/12/06 12:26:55;;;;;;;4.55;2.50;;;3.80;99.90;;;;;;4993942;28;20583;-74
2023/12/06 12:29:22;;;;;;;3.38;3.08;;;3.80;99.90;;;;;;4993943;28;20203;-74
2023/12/06 12:31:50;;;;;;;3.60;3.30;;;3.80;99.90;;;;;;4994211;28;20225;-72
2023/12/06 12:34:17;;;;;;;3.83;3.28;;;3.80;99.90;;;;;;4993961;28;20644;-72
2023/12/06 12:36:44;;;;;;;5.03;3.53;;;3.80;99.90;;;;;;4994163;28;20216;-71
2023/12/06 12:39:13;;;;;;;5.55;3.33;;;3.80;99.90;;;;;;4993324;28;20214;-73
2023/12/06 12:41:40;;;;;;;3.28;2.97;;;3.80;99.90;;;;;;4993992;28;20604;-72
2023/12/06 12:44:07;;;;;;;8.85;3.15;;;3.80;99.90;;;;;;4993641;28;20283;-71
2023/12/06 12:46:35;;;;;;;3.10;2.80;;;3.80;99.90;;;;;;4994238;28;20235;-72
2023/12/06 12:49:05;;;;;;;3.85;3.42;;;3.80;99.90;;;;;;4993113;28;20207;-73
2023/12/06 12:51:34;;;;;;;6.57;4.15;;;3.90;99.90;;;;;;4994155;28;20596;-73
2023/12/06 12:54:01;;;;;;;4.65;3.53;;;3.90;99.90;;;;;;4993649;28;20678;-72
2023/12/06 12:56:28;;;;;;;3.67;3.10;;;3.90;99.90;;;;;;4993656;28;20205;-72
2023/12/06 12:58:55;;;;;;;4.35;3.30;;;3.90;99.90;;;;;;4993005;28;20651;-73
2023/12/06 13:01:21;;;;;;;3.30;2.95;;;4.00;99.90;;;;;;4993775;28;20224;-73
2023/12/06 13:03:48;;;;;;;11.48;3.33;;;4.00;99.90;;;;;;4989808;28;20209;-72
2023/12/06 13:06:19;;;;;;;3.38;3.00;;;3.90;99.90;;;;;;4992602;28;20235;-72
2023/12/06 13:08:45;;;;;;;5.07;2.80;;;4.00;99.90;;;;;;4993130;28;20247;-71
2023/12/06 13:11:12;;;;;;;4.22;3.13;;;4.00;99.90;;;;;;4992454;28;20240;-71
2023/12/06 13:13:40;;;;;;;3.70;2.92;;;4.00;99.90;;;;;;4992714;28;20320;-71
2023/12/06 13:16:07;;;;;;;3.42;2.80;;;4.00;99.90;;;;;;4992612;28;20236;-71
2023/12/06 13:18:34;;;;;;;4.25;3.72;;;4.00;99.90;;;;;;4992649;28;20207;-71
2023/12/06 13:21:01;;;;;;;8.38;3.28;;;4.00;99.90;;;;;;4992971;28;20233;-71
2023/12/06 13:23:29;;;;;;;3.50;2.72;;;4.00;99.90;;;;;;4992829;28;20255;-72
2023/12/06 13:25:56;;;;;;;2.72;2.53;;;4.00;99.90;;;;;;4992220;28;20207;-72
2023/12/06 13:28:22;;;;;;;2.50;2.30;;;4.00;99.90;;;;;;4992539;28;20684;-71
2023/12/06 13:30:49;;;;;;;4.30;3.53;;;4.00;99.90;;;;;;4992974;28;20713;-72
2023/12/06 13:33:16;;;;;;;4.65;3.05;;;4.00;99.90;;;;;;4992127;28;20213;-71
2023/12/06 13:35:42;;;;;;;3.35;2.60;;;4.00;99.90;;;;;;5000540;28;20712;-72
2023/12/06 13:38:09;;;;;;;3.58;2.92;;;4.00;99.90;;;;;;4992788;28;20634;-71
2023/12/06 13:40:37;;;;;;;3.42;2.90;;;3.90;99.90;;;;;;4992930;28;20655;-73
2023/12/06 13:43:04;;;;;;;4.53;3.35;;;3.90;99.90;;;;;;4992700;28;20209;-72
2023/12/06 13:45:31;;;;;;;3.38;3.00;;;3.80;99.90;;;;;;4997507;28;20205;-72
2023/12/06 13:47:57;;;;;;;4.57;3.10;;;3.80;99.90;;;;;;4994325;28;20208;-72
2023/12/06 13:50:24;;;;;;;3.35;3.05;;;3.90;99.90;;;;;;4992206;28;20679;-73
2023/12/06 13:52:51;;;;;;;3.45;3.15;;;3.90;99.90;;;;;;4992573;28;20204;-73
2023/12/06 13:55:18;;;;;;;4.57;2.90;;;3.80;99.90;;;;;;4991234;28;20225;-71
2023/12/06 13:57:46;;;;;;;4.15;3.45;;;3.80;99.90;;;;;;4992033;28;20257;-73
2023/12/06 14:00:14;;;;;;;4.40;3.13;;;3.80;99.90;;;;;;4991931;28;20634;-73
2023/12/06 14:02:41;;;;;;;3.80;2.88;;;3.80;99.90;;;;;;4992459;28;20213;-73
2023/12/06 14:05:08;;;;;;;3.72;3.17;;;3.80;99.90;;;;;;4990755;28;20212;-72
2023/12/06 14:07:35;;;;;;;5.00;3.58;;;3.80;99.90;;;;;;4992064;28;20764;-73
2023/12/06 14:10:02;;;;;;;4.40;3.40;;;3.80;99.90;;;;;;4991917;28;20214;-72
2023/12/06 14:12:28;;;;;;;5.03;3.47;;;3.70;99.90;;;;;;4992185;28;20229;-73
2023/12/06 14:14:57;;;;;;;4.40;2.90;;;3.80;99.90;;;;;;4992049;28;20727;-72
2023/12/06 14:17:25;;;;;;;3.25;2.97;;;3.80;99.90;;;;;;4991344;28;20239;-74
2023/12/06 14:19:52;;;;;;;3.10;2.80;;;3.70;99.90;;;;;;4992257;28;20313;-73
2023/12/06 14:22:19;;;;;;;2.45;2.20;;;3.70;99.90;;;;;;4998574;28;20240;-72
2023/12/06 14:24:46;;;;;;;4.32;3.90;;;3.80;99.90;;;;;;4992160;28;20206;-73
2023/12/06 14:27:12;;;;;;;5.70;3.08;;;3.80;99.90;;;;;;4990855;28;20221;-73
2023/12/06 14:29:39;;;;;;;2.90;2.67;;;3.80;99.90;;;;;;4998658;28;20211;-73
2023/12/06 14:32:07;;;;;;;4.68;3.78;;;3.70;99.90;;;;;;4993431;28;20232;-72
2023/12/06 14:34:35;;;;;;;2.50;2.30;;;3.70;99.90;;;;;;4992212;28;20278;-73
2023/12/06 14:37:01;;;;;;;3.38;2.67;;;3.60;99.90;;;;;;4991105;28;20269;-73
2023/12/06 14:39:28;;;;;;;3.25;2.95;;;3.70;99.90;;;;;;4992093;28;20208;-73
2023/12/06 14:41:54;;;;;;;3.45;2.45;;;3.70;99.90;;;;;;4992072;28;20232;-73
2023/12/06 14:44:21;;;;;;;5.03;3.45;;;3.70;99.90;;;;;;4991615;28;20205;-73
2023/12/06 14:46:48;;;;;;;4.72;3.25;;;3.70;99.90;;;;;;4991873;28;20604;-73
2023/12/06 14:49:16;;;;;;;6.30;2.90;;;3.70;99.90;;;;;;4991070;28;20211;-72
2023/12/06 14:51:43;;;;;;;3.28;2.75;;;3.60;99.90;;;;;;4991772;28;20231;-73
2023/12/06 14:54:09;;;;;;;4.25;3.15;;;3.60;99.90;;;;;;4991359;28;20214;-72
2023/12/06 14:56:36;;;;;;;3.22;2.90;;;3.60;99.90;;;;;;4991446;28;20212;-72
2023/12/06 14:59:04;;;;;;;4.53;2.80;;;3.50;99.90;;;;;;4991196;28;20211;-73
2023/12/06 15:01:34;;;;;;;3.78;2.35;;;3.50;99.90;;;;;;4991861;28;20715;-73
2023/12/06 15:04:01;;;;;;;4.22;2.85;;;3.50;99.90;;;;;;4991810;28;20240;-73
2023/12/06 15:06:30;;;;;;;4.60;3.85;;;3.40;99.90;;;;;;4991605;28;20267;-73
2023/12/06 15:08:57;;;;;;;3.25;2.92;;;3.40;99.90;;;;;;4991895;28;20299;-73
2023/12/06 15:11:24;;;;;;;4.20;3.20;;;3.40;99.90;;;;;;4991251;28;20239;-73
2023/12/06 15:13:50;;;;;;;6.20;2.58;;;3.40;99.90;;;;;;4991827;28;20213;-73
2023/12/06 15:16:17;;;;;;;3.72;2.60;;;3.40;99.90;;;;;;4991069;28;20601;-73
2023/12/06 15:18:44;;;;;;;8.68;4.18;;;3.40;99.90;;;;;;4991683;28;20205;-74
2023/12/06 15:21:10;;;;;;;3.65;2.78;;;3.40;99.90;;;;;;4991868;28;20284;-73
2023/12/06 15:23:39;;;;;;;4.60;3.05;;;3.30;99.90;;;;;;4989111;28;20312;-74
2023/12/06 15:26:05;;;;;;;3.80;2.72;;;3.30;99.90;;;;;;4987302;28;20244;-74
2023/12/06 15:28:33;;;;;;;3.30;2.83;;;3.30;99.90;;;;;;4994642;28;20211;-73
2023/12/06 15:30:59;;;;;;;2.88;2.63;;;3.30;99.90;;;;;;4989935;28;20253;-74
2023/12/06 15:33:26;;;;;;;3.60;3.20;;;3.20;99.90;;;;;;4989392;28;20557;-75
2023/12/06 15:35:53;;;;;;;4.07;2.67;;;3.20;99.90;;;;;;4991559;28;20501;-73
2023/12/06 15:38:19;;;;;;;3.70;3.03;;;3.20;99.90;;;;;;4990043;28;20588;-74
2023/12/06 15:40:47;;;;;;;2.85;2.20;;;3.20;99.90;;;;;;4992151;28;20232;-74
2023/12/06 15:43:15;;;;;;;2.35;2.00;;;3.20;99.90;;;;;;4994364;28;20220;-74
2023/12/06 15:45:42;;;;;;;3.35;2.90;;;3.10;99.90;;;;;;4995113;28;20844;-74
2023/12/06 15:48:08;;;;;;;3.35;3.08;;;3.10;99.90;;;;;;4994605;28;20226;-74
2023/12/06 15:50:35;;;;;;;4.57;3.70;;;3.10;99.90;;;;;;4995133;28;20720;-74
2023/12/06 15:53:03;;;;;;;4.55;2.85;;;3.00;99.90;;;;;;4994402;28;20207;-74
2023/12/06 15:55:30;;;;;;;5.15;3.17;;;3.10;99.90;;;;;;4996824;28;20310;-74
2023/12/06 15:57:58;;;;;;;3.92;2.63;;;3.10;99.90;;;;;;4997816;28;20592;-74
2023/12/06 16:00:25;;;;;;;8.13;3.67;;;3.00;99.90;;;;;;5003537;28;20215;-73
2023/12/06 16:02:52;;;;;;;4.85;3.45;;;3.00;99.90;;;;;;4993805;28;20216;-75
2023/12/06 16:05:19;;;;;;;2.50;2.30;;;3.00;99.90;;;;;;4995330;28;20211;-74
2023/12/06 16:07:46;;;;;;;5.07;3.22;;;3.00;99.90;;;;;;5001402;28;20655;-73
2023/12/06 16:10:14;;;;;;;4.90;3.28;;;3.00;99.90;;;;;;5002123;28;20224;-75
2023/12/06 16:12:42;;;;;;;4.95;2.95;;;3.00;99.90;;;;;;5004420;28;20209;-74
2023/12/06 16:15:11;;;;;;;4.55;2.90;;;3.00;99.90;;;;;;5000946;28;20230;-75
2023/12/06 16:17:39;;;;;;;4.78;3.10;;;3.00;99.90;;;;;;4994735;28;20212;-75
2023/12/06 16:20:08;;;;;;;3.38;2.92;;;3.00;99.90;;;;;;4995138;28;20219;-74
2023/12/06 16:22:37;;;;;;;3.78;3.35;;;3.00;99.90;;;;;;4986742;28;20235;-73
2023/12/06 16:25:04;;;;;;;4.68;2.88;;;3.00;99.90;;;;;;4990530;28;20714;-73
2023/12/06 16:27:31;;;;;;;4.00;2.83;;;3.00;99.90;;;;;;4993706;28;20216;-74
2023/12/06 16:29:59;;;;;;;4.03;2.88;;;3.00;99.90;;;;;;4994110;28;20212;-75
2023/12/06 16:32:27;;;;;;;3.70;2.78;;;3.00;99.90;;;;;;4994417;28;20259;-76
2023/12/06 16:34:54;;;;;;;5.93;3.28;;;3.00;99.90;;;;;;4994534;28;20230;-75
2023/12/06 16:37:23;;;;;;;3.00;2.80;;;3.00;99.90;;;;;;4993702;28;20274;-74
2023/12/06 16:39:50;;;;;;;3.33;2.92;;;3.00;99.90;;;;;;4995352;28;20211;-75
2023/12/06 16:42:18;;;;;;;5.47;3.83;;;3.00;99.90;;;;;;4994315;28;20251;-75
2023/12/06 16:44:45;;;;;;;4.53;3.10;;;3.00;99.90;;;;;;4994428;28;20204;-74
2023/12/06 16:47:13;;;;;;;4.63;2.88;;;3.10;99.90;;;;;;4993985;28;20621;-75
2023/12/06 16:49:41;;;;;;;3.30;3.00;;;3.10;99.90;;;;;;4993883;28;20296;-74
2023/12/06 16:52:08;;;;;;;3.63;2.70;;;3.00;99.90;;;;;;4993773;28;20233;-74
2023/12/06 16:54:35;;;;;;;3.75;3.45;;;3.10;99.90;;;;;;4993699;28;20590;-74
2023/12/06 16:57:02;;;;;;;4.75;3.55;;;3.10;99.90;;;;;;4993084;28;20273;-75
2023/12/06 16:59:29;;;;;;;5.03;3.95;;;3.10;99.90;;;;;;4992967;28;20685;-75
2023/12/06 17:01:56;;;;;;;5.35;3.35;;;3.10;99.90;;;;;;4993743;28;20228;-75
2023/12/06 17:04:23;;;;;;;5.32;3.58;;;3.10;99.90;;;;;;4991555;28;20483;-71
2023/12/06 17:06:51;;;;;;;4.57;3.00;;;3.10;99.90;;;;;;4990440;28;20206;-71
2023/12/06 17:09:21;;;;;;;4.32;3.83;;;3.10;99.90;;;;;;4989251;28;20232;-72
2023/12/06 17:11:48;;;;;;;3.28;2.85;;;3.10;99.90;;;;;;4992992;28;20310;-71
2023/12/06 17:14:14;;;;;;;5.15;4.32;;;3.00;99.90;;;;;;4992753;28;20707;-71
2023/12/06 17:16:42;;;;;;;5.03;3.88;;;3.00;99.90;;;;;;4987485;28;20225;-71
2023/12/06 17:19:10;;;;;;;3.85;2.95;;;3.00;99.90;;;;;;4992437;28;20217;-71